»·PEaware :: N416JK KBFL-KIFP

N416JK :: KBFL-KIFP

FLIGHT INFORMATION

Flight Status: Arrived
Operator: Privately registered:
United States
More flights under this callsign
Pilot: John K. (4202)
Aircraft: Unknown
(EPIC)
More flights by this aircraft type
Origin: KBFL Meadows
United States
Destination: KIFP Laughlin/Bullhead Intl
United States
More flights between these airports :: More routes between these airports
Route: +MEADO3 MINGI V197 PMD V12 HEC V210 GFS
File this flight plan on PilotEdge
Remarks:
Altitude:
(Current/Filed)
11,000ft
Speed:
(Current/Filed)
280kts
Departed: 25-Jun-18 08:31 AM
Arrived: 25-Jun-18 09:36 AM
Distance/Time
Traveled:
221nm/1:05
Distance/Time
To Go:
Arrived

Flight Plot

Page will automatically refresh every two minutes.

Flight plan parsing failed; only flown route is shown


Map Options




Map Legend


Flown Route
Filed Route
Departure Airport
Arrival Airport
Navaid (VOR, NDB)
Fix

Horizontal Profiles

Position Reports

Time Latitude Longitude Heading Altitude Ground
Speed
25-Jun-18 08:22 35.429524 -119.046652 226 508ft 0kts
25-Jun-18 08:23 35.429524 -119.046652 226 508ft 0kts
25-Jun-18 08:24 35.429524 -119.046652 226 508ft 0kts
25-Jun-18 08:25 35.429524 -119.046652 226 508ft 0kts
25-Jun-18 08:26 35.429524 -119.046652 226 508ft 0kts
25-Jun-18 08:27 35.429524 -119.046652 226 508ft 0kts
25-Jun-18 08:28 35.427042 -119.045742 134 508ft 19kts
25-Jun-18 08:29 35.425911 -119.044661 205 508ft 0kts
25-Jun-18 08:30 35.425911 -119.044661 205 508ft 0kts
25-Jun-18 08:31 35.436802 -119.059966 312 599ft 155kts
25-Jun-18 08:32 35.474629 -119.110665 313 1751ft 252kts
25-Jun-18 08:33 35.520633 -119.179092 281 2729ft 276kts
25-Jun-18 08:34 35.473085 -119.230639 192 3697ft 254kts
25-Jun-18 08:35 35.405703 -119.246189 169 4652ft 250kts
25-Jun-18 08:36 35.378219 -119.177278 121 5617ft 247kts
25-Jun-18 08:37 35.343943 -119.106359 118 6605ft 245kts
25-Jun-18 08:38 35.310772 -119.032233 118 7996ft 253kts
25-Jun-18 08:39 35.277560 -118.957069 117 9549ft 257kts
25-Jun-18 08:40 35.244571 -118.882128 118 10966ft 266kts
25-Jun-18 08:41 35.206902 -118.796320 118 11002ft 304kts
25-Jun-18 08:42 35.150980 -118.718609 137 11000ft 315kts
25-Jun-18 08:43 35.087367 -118.647465 137 11042ft 316kts
25-Jun-18 08:44 35.023894 -118.576229 137 10999ft 313kts
25-Jun-18 08:45 34.964397 -118.498575 132 10954ft 313kts
25-Jun-18 08:46 34.906114 -118.422108 132 10954ft 313kts
25-Jun-18 08:47 34.847833 -118.345859 132 10954ft 312kts
25-Jun-18 08:48 34.788793 -118.268750 132 10954ft 312kts
25-Jun-18 08:49 34.739749 -118.204842 132 10954ft 312kts
25-Jun-18 08:50 34.699276 -118.152160 132 10953ft 311kts
25-Jun-18 08:51 34.685728 -118.134541 132 10953ft 310kts
25-Jun-18 08:52 34.636742 -118.060061 101 10945ft 308kts
25-Jun-18 08:53 34.640029 -117.991405 83 10954ft 308kts
25-Jun-18 08:54 34.640214 -117.989396 83 10954ft 308kts
25-Jun-18 08:55 34.649128 -117.901576 82 10955ft 313kts
25-Jun-18 08:56 34.660538 -117.798578 82 11035ft 316kts
25-Jun-18 08:57 34.671704 -117.694178 82 11145ft 316kts
25-Jun-18 08:58 34.682757 -117.590151 82 11118ft 316kts
25-Jun-18 08:59 34.693352 -117.489992 82 10955ft 299kts
25-Jun-18 09:00 34.703679 -117.390727 82 10954ft 302kts
25-Jun-18 09:01 34.714049 -117.290787 82 10954ft 303kts
25-Jun-18 09:02 34.724543 -117.189241 82 10954ft 302kts
25-Jun-18 09:03 34.734737 -117.089836 82 10954ft 302kts
25-Jun-18 09:04 34.744703 -116.990589 82 10998ft 300kts
25-Jun-18 09:05 34.754645 -116.891619 82 10999ft 300kts
25-Jun-18 09:06 34.764923 -116.791350 83 11000ft 300kts
25-Jun-18 09:07 34.768178 -116.758716 83 11000ft 300kts
25-Jun-18 09:08 34.770436 -116.735979 83 11000ft 300kts
25-Jun-18 09:09 34.780280 -116.636188 83 11000ft 303kts
25-Jun-18 09:10 34.790253 -116.534139 83 11000ft 304kts
25-Jun-18 09:11 34.804647 -116.435081 72 11001ft 305kts
25-Jun-18 09:12 34.829995 -116.338731 72 11000ft 305kts
25-Jun-18 09:13 34.855986 -116.240316 71 11000ft 305kts
25-Jun-18 09:14 34.880269 -116.148118 71 11000ft 305kts
25-Jun-18 09:15 34.905612 -116.051567 71 11000ft 305kts
25-Jun-18 09:16 34.930774 -115.955354 71 10999ft 305kts
25-Jun-18 09:17 34.956892 -115.856001 72 11000ft 311kts
25-Jun-18 09:18 34.982563 -115.757749 72 11000ft 312kts
25-Jun-18 09:19 35.008133 -115.658953 72 11000ft 312kts
25-Jun-18 09:20 35.034162 -115.557915 72 10746ft 308kts
25-Jun-18 09:21 35.057481 -115.467088 72 9458ft 267kts
25-Jun-18 09:22 35.078499 -115.384948 72 9000ft 249kts
25-Jun-18 09:23 35.097559 -115.310242 72 9058ft 230kts
25-Jun-18 09:24 35.119212 -115.225087 72 9066ft 282kts
25-Jun-18 09:25 35.132938 -115.133162 87 9064ft 285kts
25-Jun-18 09:26 35.136528 -115.039300 86 9063ft 280kts
25-Jun-18 09:27 35.140221 -114.944210 86 9064ft 279kts
25-Jun-18 09:28 35.143973 -114.852097 87 9064ft 279kts
25-Jun-18 09:29 35.147459 -114.763071 87 7896ft 245kts
25-Jun-18 09:30 35.150226 -114.688651 87 6504ft 201kts
25-Jun-18 09:31 35.177476 -114.653819 11 4887ft 151kts
25-Jun-18 09:32 35.208602 -114.636119 73 2769ft 120kts
25-Jun-18 09:33 35.209854 -114.598941 89 1631ft 119kts
25-Jun-18 09:34 35.194895 -114.563026 168 1242ft 128kts
25-Jun-18 09:35 35.168614 -114.560361 174 748ft 89kts
25-Jun-18 09:36 35.155915 -114.558428 86 705ft 14kts
25-Jun-18 09:37 35.156117 -114.556026 350 705ft 0kts

Navigation Log

Ident Type
Flight plan parsing failed, navigation log unavailable